createdAt,value
2019-03-03T00:29:06.594Z,6.57
2019-03-03T00:44:09.994Z,6.60
2019-03-03T00:47:09.203Z,6.20
2019-03-03T00:53:00.746Z,5.60
2019-03-03T00:55:46.813Z,5.43
2019-03-03T01:09:47.563Z,6.00
2019-03-03T01:16:50.828Z,4.50
2019-03-03T01:19:57.267Z,4.60
2019-03-03T01:36:33.761Z,5.83
2019-03-03T01:42:19.120Z,6.60
2019-03-03T01:44:59.373Z,6.23
2019-03-03T01:56:58.928Z,7.10
2019-03-03T01:59:58.236Z,7.83
2019-03-03T02:02:57.474Z,7.63
2019-03-03T02:05:57.274Z,8.00
2019-03-03T02:32:34.031Z,7.17
2019-03-03T02:35:01.842Z,7.87
2019-03-03T02:37:29.645Z,8.33
2019-03-03T02:39:57.438Z,8.23
2019-03-03T02:42:44.484Z,8.23
2019-03-03T03:03:23.222Z,7.63
2019-03-03T03:39:44.218Z,7.30
2019-03-03T04:21:32.819Z,5.07
2019-03-03T05:27:14.909Z,4.50
2019-03-03T07:00:10.678Z,4.80
2019-03-03T07:03:10.418Z,4.77
2019-03-03T07:08:54.678Z,4.20
2019-03-03T07:52:28.877Z,4.10
2019-03-03T07:55:18.266Z,4.37
2019-03-03T08:06:51.308Z,4.60
2019-03-03T08:31:01.940Z,4.93
2019-03-03T08:46:37.260Z,4.30
2019-03-03T08:50:00.660Z,4.00
2019-03-03T08:52:48.349Z,3.93
2019-03-03T08:56:11.350Z,5.17
2019-03-03T08:59:17.905Z,4.00
2019-03-03T09:11:38.619Z,3.83
2019-03-03T09:17:42.807Z,4.53
2019-03-03T09:35:54.926Z,3.67
2019-03-03T11:04:06.376Z,3.13
2019-03-03T11:25:40.564Z,3.90
2019-03-03T11:32:01.248Z,3.50
2019-03-03T11:47:50.101Z,3.53
2019-03-03T11:50:36.318Z,3.90
2019-03-03T11:53:27.114Z,3.70
2019-03-03T12:03:12.501Z,3.73
2019-03-03T12:09:18.202Z,3.50
2019-03-03T12:11:56.293Z,2.93
2019-03-03T12:14:42.840Z,2.20
2019-03-03T12:17:30.503Z,3.30
2019-03-03T12:20:20.993Z,3.60
2019-03-03T12:23:23.857Z,3.57
2019-03-03T12:29:48.086Z,3.27
2019-03-03T12:32:34.339Z,5.40
2019-03-03T12:35:16.139Z,3.77
2019-03-03T12:38:01.358Z,3.33
2019-03-03T12:40:50.275Z,3.30
2019-03-03T12:43:40.714Z,3.40
2019-03-03T12:50:42.502Z,2.37
2019-03-03T12:53:30.803Z,3.20
2019-03-03T12:56:24.330Z,2.50
2019-03-03T12:59:06.568Z,3.07
2019-03-03T13:02:00.525Z,2.97
2019-03-03T13:35:20.487Z,3.17
2019-03-03T13:41:23.548Z,2.10
2019-03-03T13:44:03.763Z,2.83
2019-03-03T13:49:48.363Z,2.17
2019-03-03T14:01:59.429Z,2.83
2019-03-03T14:08:13.538Z,2.67
2019-03-03T14:21:34.800Z,2.87
2019-03-03T14:31:00.546Z,2.90
2019-03-03T14:40:41.347Z,2.83
2019-03-03T14:46:40.269Z,3.07
2019-03-03T14:49:39.562Z,2.60
2019-03-03T14:58:32.614Z,3.00
2019-03-03T15:07:05.350Z,3.30
2019-03-03T15:09:45.623Z,2.90
2019-03-03T15:12:27.733Z,2.93
2019-03-03T15:15:08.206Z,2.70
2019-03-03T15:24:10.579Z,3.17
2019-03-03T15:27:18.994Z,1.87
2019-03-03T15:43:31.755Z,3.13
2019-03-03T15:46:09.888Z,2.73
2019-03-03T15:48:41.607Z,3.17
2019-03-03T15:55:05.318Z,2.00
2019-03-03T15:57:37.356Z,2.80
2019-03-03T16:00:10.677Z,2.50
2019-03-03T16:02:38.521Z,2.80
2019-03-03T16:05:07.562Z,2.90
2019-03-03T16:07:41.248Z,3.40
2019-03-03T16:10:13.140Z,2.90
2019-03-03T16:12:54.445Z,2.50
2019-03-03T16:16:18.444Z,3.10
2019-03-03T16:23:27.314Z,2.70
2019-03-03T16:29:46.041Z,2.60
2019-03-03T16:32:15.797Z,2.80
2019-03-03T16:34:44.200Z,2.97
2019-03-03T16:37:12.216Z,2.80
2019-03-03T16:39:40.548Z,2.53
2019-03-03T16:42:16.182Z,3.33
2019-03-03T16:44:43.770Z,2.50
2019-03-03T16:54:29.724Z,4.00
2019-03-03T16:57:15.713Z,3.50
2019-03-03T17:00:26.137Z,3.60
2019-03-03T17:02:59.960Z,4.00
2019-03-03T17:05:30.750Z,3.40
2019-03-03T17:07:58.628Z,2.70
2019-03-03T17:10:29.911Z,3.57
2019-03-03T17:14:02.582Z,2.90
2019-03-03T17:16:31.455Z,2.57
2019-03-03T17:19:03.062Z,2.67
2019-03-03T17:21:34.188Z,3.10
2019-03-03T17:24:09.474Z,2.90
2019-03-03T17:26:38.295Z,3.37
2019-03-03T17:29:10.788Z,2.67
2019-03-03T17:39:24.607Z,2.40
2019-03-03T17:41:56.471Z,2.50
2019-03-03T17:44:25.432Z,2.90
2019-03-03T17:46:54.924Z,2.90
2019-03-03T17:49:42.156Z,2.80
2019-03-03T17:58:52.087Z,2.60
2019-03-03T18:01:38.442Z,2.33
2019-03-03T18:04:16.420Z,2.37
2019-03-03T18:07:03.099Z,2.90
2019-03-03T18:09:38.481Z,2.37
2019-03-03T18:12:15.570Z,4.13
2019-03-03T18:15:31.244Z,2.40
2019-03-03T18:18:59.967Z,2.40
2019-03-03T18:21:29.647Z,2.80
2019-03-03T18:24:18.313Z,2.40
2019-03-03T18:26:45.035Z,2.50
2019-03-03T18:29:56.046Z,2.53
2019-03-03T18:32:28.630Z,2.17
2019-03-03T18:34:56.337Z,2.50
2019-03-03T18:37:45.590Z,2.20
2019-03-03T18:40:38.457Z,2.40
2019-03-03T18:43:23.175Z,2.43
2019-03-03T18:46:08.777Z,3.50
2019-03-03T18:48:46.433Z,3.17
2019-03-03T18:54:55.500Z,2.60
2019-03-03T18:57:27.147Z,2.43
2019-03-03T18:59:55.849Z,3.03
2019-03-03T19:02:25.618Z,2.83
2019-03-03T19:05:06.786Z,2.70
2019-03-03T19:07:39.280Z,2.33
2019-03-03T19:10:13.890Z,3.03
2019-03-03T19:12:48.083Z,2.50
2019-03-03T19:15:26.580Z,2.63
2019-03-03T19:17:57.258Z,2.80
2019-03-03T19:20:29.479Z,2.73
2019-03-03T19:23:01.562Z,2.70
2019-03-03T19:25:35.664Z,2.47
2019-03-03T19:28:06.769Z,3.63
2019-03-03T19:33:39.213Z,2.83
2019-03-03T19:36:17.244Z,2.60
2019-03-03T19:38:51.496Z,4.10
2019-03-03T19:41:25.244Z,3.10
2019-03-03T19:43:58.294Z,2.57
2019-03-03T19:46:31.217Z,3.30
2019-03-03T19:49:03.259Z,3.93
2019-03-03T19:51:34.053Z,3.23
2019-03-03T19:54:33.855Z,4.83
2019-03-03T19:57:26.967Z,3.50
2019-03-03T20:00:04.650Z,4.53
2019-03-03T20:02:34.673Z,4.53
2019-03-03T20:05:03.835Z,3.87
2019-03-03T20:07:39.209Z,3.33
2019-03-03T20:10:11.488Z,2.50
2019-03-03T20:12:43.644Z,2.23
2019-03-03T20:15:16.423Z,3.30
2019-03-03T20:21:23.728Z,2.63
2019-03-03T20:24:16.959Z,2.60
2019-03-03T20:26:44.619Z,3.33
2019-03-03T20:29:33.687Z,2.60
2019-03-03T20:32:05.693Z,2.70
2019-03-03T20:34:34.139Z,2.43
2019-03-03T20:37:06.840Z,2.53
2019-03-03T20:40:05.111Z,2.00
2019-03-03T20:42:39.042Z,3.07
2019-03-03T20:45:10.537Z,2.50
2019-03-03T20:47:45.386Z,2.57
2019-03-03T20:50:17.227Z,2.90
2019-03-03T20:52:52.141Z,2.67
2019-03-03T20:55:20.153Z,2.80
2019-03-03T20:58:09.720Z,5.83
2019-03-03T21:00:38.327Z,2.57
2019-03-03T21:03:14.731Z,2.90
2019-03-03T21:05:57.383Z,2.37
2019-03-03T21:08:39.390Z,2.90
2019-03-03T21:11:07.514Z,2.83
2019-03-03T21:13:41.609Z,2.93
2019-03-03T21:16:15.369Z,2.87
2019-03-03T21:18:43.340Z,2.50
2019-03-03T21:21:14.630Z,2.63
2019-03-03T21:23:44.595Z,2.93
2019-03-03T21:26:25.193Z,2.57
2019-03-03T21:29:28.535Z,3.23
2019-03-03T21:32:11.333Z,3.17
2019-03-03T21:34:40.615Z,2.87
2019-03-03T21:37:08.291Z,3.37
2019-03-03T21:39:43.309Z,3.10
2019-03-03T21:42:18.341Z,3.40
2019-03-03T21:44:47.337Z,3.33
2019-03-03T21:47:16.178Z,3.07
2019-03-03T21:49:49.821Z,3.07
2019-03-03T21:52:20.521Z,3.10
2019-03-03T21:54:51.778Z,2.80
2019-03-03T21:57:21.280Z,3.30
2019-03-03T21:59:52.932Z,3.27
2019-03-03T22:02:22.398Z,2.50
2019-03-03T22:04:51.456Z,3.63
2019-03-03T22:07:27.318Z,2.90
2019-03-03T22:10:03.494Z,3.50
2019-03-03T22:12:51.093Z,3.80
2019-03-03T22:15:22.774Z,3.70
2019-03-03T22:17:51.544Z,3.87
2019-03-03T22:20:23.411Z,3.50
2019-03-03T22:22:54.086Z,3.10
2019-03-03T22:25:23.055Z,3.40
2019-03-03T22:27:52.539Z,2.93
2019-03-03T22:30:20.507Z,3.27
2019-03-03T22:32:57.508Z,3.37
2019-03-03T22:35:29.790Z,3.23
2019-03-03T22:38:21.146Z,3.00
2019-03-03T22:40:47.097Z,2.63
2019-03-03T22:43:16.390Z,2.90
2019-03-03T22:45:47.169Z,2.87
2019-03-03T22:48:19.387Z,3.13
2019-03-03T22:50:48.421Z,3.07
2019-03-03T22:53:17.690Z,3.23
2019-03-03T22:55:45.717Z,2.90
2019-03-03T22:58:23.988Z,3.53
2019-03-03T23:01:28.621Z,2.67
2019-03-03T23:04:23.521Z,3.60
2019-03-03T23:07:12.028Z,2.93
2019-03-03T23:10:17.978Z,2.77
2019-03-03T23:13:24.591Z,3.20
2019-03-03T23:16:29.119Z,3.47
2019-03-03T23:19:46.369Z,2.63
2019-03-03T23:22:54.484Z,2.83
2019-03-03T23:25:52.688Z,2.87
2019-03-03T23:28:25.234Z,3.30
2019-03-03T23:30:58.595Z,2.77
2019-03-03T23:33:28.268Z,2.80
2019-03-03T23:35:56.183Z,2.50
2019-03-03T23:38:27.727Z,2.50
2019-03-03T23:40:57.529Z,2.60
2019-03-03T23:43:25.230Z,3.13
2019-03-03T23:45:54.251Z,3.23
2019-03-03T23:48:22.211Z,3.10
2019-03-03T23:50:51.210Z,3.10
2019-03-03T23:53:20.486Z,3.03
2019-03-03T23:55:49.676Z,3.30
2019-03-03T23:58:20.638Z,3.37
